Main page
Satellite images 15-day forecastsClimateMarine weather Cyclones Lightning AirportsFAQ Newsletter About
Weather : Europe Africa North America South America Asia Australia-Oceania Others
Languages Contact

Dortmund, Germany

latitude: 51-31N, longitude: 007-37E, elevation: 127 m


METAR: EDLW 302050Z 22007KT 9999 BKN020 14/12 Q1015 RMK ATIS J
short-TAF: out of date (36518 hours)
long-TAF: EDLW 302150Z 3021/3118 CNL

Time: 04:13 (02:13 UTC)

Current weather observation

The report was made 5 hours and 23 minutes ago, at 20:50 UTC  
Wind 07 kt from the Southwest
Temperature 14°C
Humidity 88%
Pressure 1015 hPa
Visibility 10 km or more
Broken clouds at a height of 2000 ft

Change units

The information on this site is subject to a disclaimer
Weather : Europe Africa North America South America Asia Australia-Oceania Others
Satellite images 15-day forecastsClimateMarine weather Cyclones Lightning AirportsFAQ Languages Contact Newsletter About